Time;durP1;ratioP1;P1;durP2;ratioP2;P2;SDS_P1;SDS_P2;PMS_P1;PMS_P2;Temp;Humidity;BMP_temperature;BMP_pressure;BME280_temperature;BME280_humidity;BME280_pressure;Samples;Min_cycle;Max_cycle;Signal;HPM_P1;HPM_P2
2023/06/19 00:01:38;;;;;;;10.25;9.43;;;;;;;;;;5063422;28;20333;-54
2023/06/19 00:04:05;;;;;;;10.40;9.60;;;;;;;;;;5063727;28;20314;-54
2023/06/19 00:06:31;;;;;;;10.13;9.25;;;;;;;;;;5057705;28;20228;-54
2023/06/19 00:08:57;;;;;;;10.25;9.43;;;;;;;;;;5062635;28;20270;-54
2023/06/19 00:11:24;;;;;;;10.45;9.55;;;;;;;;;;5070096;28;20287;-55
2023/06/19 00:13:50;;;;;;;10.15;9.18;;;;;;;;;;5062306;28;20326;-54
2023/06/19 00:16:19;;;;;;;10.68;9.77;;;;;;;;;;5062408;28;20238;-55
2023/06/19 00:18:45;;;;;;;9.35;8.55;;;;;;;;;;5071101;28;20235;-55
2023/06/19 00:21:11;;;;;;;9.57;8.68;;;;;;;;;;5066877;28;20257;-53
2023/06/19 00:23:38;;;;;;;9.73;9.00;;;;;;;;;;5065234;28;20605;-54
2023/06/19 00:26:06;;;;;;;9.90;9.07;;;;;;;;;;5061712;28;20317;-53
2023/06/19 00:28:33;;;;;;;10.63;9.73;;;;;;;;;;5055898;28;20338;-53
2023/06/19 00:30:59;;;;;;;8.55;7.88;;;;;;;;;;5053226;28;20259;-55
2023/06/19 00:33:29;;;;;;;10.52;9.63;;;;;;;;;;5063331;28;20314;-54
2023/06/19 00:35:55;;;;;;;10.57;9.70;;;;;;;;;;5061546;28;20854;-54
2023/06/19 00:38:22;;;;;;;10.10;9.30;;;;;;;;;;5053720;28;20739;-54
2023/06/19 00:40:48;;;;;;;10.05;9.25;;;;;;;;;;5061279;28;20306;-54
2023/06/19 00:43:15;;;;;;;9.98;9.18;;;;;;;;;;5064084;28;20236;-53
2023/06/19 00:45:42;;;;;;;9.20;8.60;;;;;;;;;;5056650;28;20223;-54
2023/06/19 00:48:09;;;;;;;9.48;8.77;;;;;;;;;;5063030;28;20294;-55
2023/06/19 00:50:38;;;;;;;10.55;9.75;;;;;;;;;;5060314;28;20231;-56
2023/06/19 00:53:07;;;;;;;9.73;8.93;;;;;;;;;;5060904;28;20266;-53
2023/06/19 00:55:34;;;;;;;10.77;9.98;;;;;;;;;;5058551;28;20235;-56
2023/06/19 00:58:01;;;;;;;9.32;8.63;;;;;;;;;;5052482;28;20245;-54
2023/06/19 01:00:28;;;;;;;11.48;9.63;;;;;;;;;;5060272;28;20235;-54
2023/06/19 01:02:55;;;;;;;9.93;9.10;;;;;;;;;;5061293;28;20237;-54
2023/06/19 01:05:22;;;;;;;10.55;9.65;;;;;;;;;;5058485;28;20287;-54
2023/06/19 01:07:53;;;;;;;10.18;9.18;;;;;;;;;;5058351;28;20601;-54
2023/06/19 01:10:22;;;;;;;10.02;9.32;;;;;;;;;;5060533;28;20751;-54
2023/06/19 01:12:53;;;;;;;10.15;9.25;;;;;;;;;;5061588;28;20688;-56
2023/06/19 01:15:20;;;;;;;10.40;9.48;;;;;;;;;;5057411;28;20695;-55
2023/06/19 01:17:48;;;;;;;10.43;9.52;;;;;;;;;;5062448;28;20270;-55
2023/06/19 01:20:16;;;;;;;10.55;9.50;;;;;;;;;;5067569;28;20310;-55
2023/06/19 01:22:44;;;;;;;10.27;9.45;;;;;;;;;;5063839;28;20264;-54
2023/06/19 01:25:13;;;;;;;10.73;9.82;;;;;;;;;;5064526;28;20558;-55
2023/06/19 01:27:41;;;;;;;9.90;9.15;;;;;;;;;;5067712;28;20765;-54
2023/06/19 01:30:09;;;;;;;11.18;10.27;;;;;;;;;;5063566;28;20227;-54
2023/06/19 01:32:48;;;;;;;10.70;9.70;;;;;;;;;;5063842;28;20235;-55
2023/06/19 01:35:16;;;;;;;11.18;10.20;;;;;;;;;;5063099;28;20280;-56
2023/06/19 01:37:46;;;;;;;11.70;10.73;;;;;;;;;;5064148;28;20226;-55
2023/06/19 01:40:13;;;;;;;11.32;10.43;;;;;;;;;;5064699;28;20227;-53
2023/06/19 01:42:41;;;;;;;12.32;11.32;;;;;;;;;;5065258;28;20235;-55
2023/06/19 01:45:08;;;;;;;11.80;10.80;;;;;;;;;;5065068;28;20239;-55
2023/06/19 01:47:34;;;;;;;10.88;10.02;;;;;;;;;;5063667;28;20262;-54
2023/06/19 01:50:01;;;;;;;10.38;9.52;;;;;;;;;;5060727;28;20227;-55
2023/06/19 01:52:28;;;;;;;10.90;10.00;;;;;;;;;;5061121;28;20231;-54
2023/06/19 01:54:56;;;;;;;11.68;10.77;;;;;;;;;;5063131;28;20705;-54
2023/06/19 01:57:23;;;;;;;13.68;12.57;;;;;;;;;;5064764;28;20669;-53
2023/06/19 01:59:50;;;;;;;12.23;11.13;;;;;;;;;;5060856;28;20239;-55
2023/06/19 02:02:16;;;;;;;12.13;11.10;;;;;;;;;;5064581;28;20663;-55
2023/06/19 02:04:43;;;;;;;10.85;10.05;;;;;;;;;;5064343;28;20453;-56
2023/06/19 02:07:10;;;;;;;11.45;10.45;;;;;;;;;;5060995;28;20962;-54
2023/06/19 02:09:37;;;;;;;12.73;11.68;;;;;;;;;;5063750;28;20327;-55
2023/06/19 02:12:06;;;;;;;11.80;10.80;;;;;;;;;;5064170;28;20236;-54
2023/06/19 02:14:32;;;;;;;11.30;10.38;;;;;;;;;;5062904;28;20250;-55
2023/06/19 02:16:59;;;;;;;10.30;9.45;;;;;;;;;;5054983;28;20300;-55
2023/06/19 02:19:26;;;;;;;12.00;11.10;;;;;;;;;;5063395;28;20242;-54
2023/06/19 02:21:55;;;;;;;12.00;11.00;;;;;;;;;;5061255;28;20282;-55
2023/06/19 02:24:22;;;;;;;11.02;10.10;;;;;;;;;;5063924;28;20623;-54
2023/06/19 02:26:49;;;;;;;12.38;11.30;;;;;;;;;;5069036;28;20318;-54
2023/06/19 02:29:17;;;;;;;10.55;9.75;;;;;;;;;;5063542;28;20223;-54
2023/06/19 02:31:45;;;;;;;11.35;10.45;;;;;;;;;;5065465;28;20238;-56
2023/06/19 02:34:11;;;;;;;11.73;10.82;;;;;;;;;;5064853;28;20234;-55
2023/06/19 02:36:38;;;;;;;12.98;11.88;;;;;;;;;;5057491;28;20238;-54
2023/06/19 02:39:05;;;;;;;11.93;10.95;;;;;;;;;;5067538;28;20241;-55
2023/06/19 02:41:32;;;;;;;12.45;11.45;;;;;;;;;;5066936;28;20247;-55
2023/06/19 02:43:58;;;;;;;13.02;11.93;;;;;;;;;;5060992;28;20230;-55
2023/06/19 02:46:26;;;;;;;11.63;10.73;;;;;;;;;;5063322;28;20384;-55
2023/06/19 02:48:53;;;;;;;12.82;11.80;;;;;;;;;;5066915;28;20235;-55
2023/06/19 02:51:20;;;;;;;12.57;11.68;;;;;;;;;;5061585;28;20233;-55
2023/06/19 02:53:47;;;;;;;12.80;11.70;;;;;;;;;;5062245;28;20239;-54
2023/06/19 02:56:14;;;;;;;12.30;10.75;;;;;;;;;;5062356;28;20226;-55
2023/06/19 02:58:41;;;;;;;12.77;11.70;;;;;;;;;;5063319;28;20223;-54
2023/06/19 03:01:08;;;;;;;14.25;13.15;;;;;;;;;;5062773;28;20223;-56
2023/06/19 03:03:37;;;;;;;14.93;13.63;;;;;;;;;;5065730;28;20235;-55
2023/06/19 03:06:05;;;;;;;14.23;12.95;;;;;;;;;;5064400;28;20234;-54
2023/06/19 03:08:31;;;;;;;13.60;12.40;;;;;;;;;;5059182;28;20936;-54
2023/06/19 03:11:00;;;;;;;12.68;11.68;;;;;;;;;;5076030;28;20233;-54
2023/06/19 03:13:28;;;;;;;13.77;12.48;;;;;;;;;;5071541;28;20240;-54
2023/06/19 03:15:55;;;;;;;13.10;12.00;;;;;;;;;;5083883;28;20708;-54
2023/06/19 03:18:22;;;;;;;13.38;12.25;;;;;;;;;;5080435;28;20230;-55
2023/06/19 03:20:50;;;;;;;11.73;10.82;;;;;;;;;;5066276;28;20237;-54
2023/06/19 03:23:17;;;;;;;11.90;11.00;;;;;;;;;;5071171;28;20239;-55
2023/06/19 03:25:44;;;;;;;12.88;11.90;;;;;;;;;;5077371;28;20262;-54
2023/06/19 03:28:11;;;;;;;12.43;11.43;;;;;;;;;;5075623;28;20507;-54
2023/06/19 03:30:38;;;;;;;12.60;11.50;;;;;;;;;;5070616;28;20242;-54
2023/06/19 03:33:04;;;;;;;13.90;12.73;;;;;;;;;;5061874;28;21275;-54
2023/06/19 03:35:31;;;;;;;13.23;12.05;;;;;;;;;;5065711;28;20306;-56
2023/06/19 03:37:59;;;;;;;12.40;11.40;;;;;;;;;;5073428;28;20234;-53
2023/06/19 03:40:26;;;;;;;12.45;11.45;;;;;;;;;;5075000;28;20782;-55
2023/06/19 03:42:53;;;;;;;12.25;11.25;;;;;;;;;;5070410;27;20295;-54
2023/06/19 03:45:20;;;;;;;13.30;12.25;;;;;;;;;;5066912;28;20223;-54
2023/06/19 03:47:46;;;;;;;12.07;11.10;;;;;;;;;;5065985;28;20240;-54
2023/06/19 03:50:13;;;;;;;10.85;9.95;;;;;;;;;;5073851;28;20825;-54
2023/06/19 03:52:40;;;;;;;11.13;10.18;;;;;;;;;;5069909;28;20235;-59
2023/06/19 03:55:08;;;;;;;10.73;9.93;;;;;;;;;;5074176;28;20237;-54
2023/06/19 03:57:35;;;;;;;11.68;10.68;;;;;;;;;;5068825;28;20245;-56
2023/06/19 04:00:03;;;;;;;12.63;11.63;;;;;;;;;;5069622;28;20231;-56
2023/06/19 04:02:29;;;;;;;13.60;12.50;;;;;;;;;;5082512;28;20357;-55
2023/06/19 04:04:56;;;;;;;12.57;11.57;;;;;;;;;;5062574;28;20232;-56
2023/06/19 04:07:22;;;;;;;14.38;12.57;;;;;;;;;;5064572;28;20231;-54
2023/06/19 04:09:49;;;;;;;12.15;11.15;;;;;;;;;;5065727;28;20223;-53
2023/06/19 04:12:17;;;;;;;13.00;11.80;;;;;;;;;;5057528;28;20232;-55
2023/06/19 04:14:44;;;;;;;13.98;12.70;;;;;;;;;;5060661;28;20296;-55
2023/06/19 04:17:10;;;;;;;11.82;10.90;;;;;;;;;;5061771;28;20783;-55
2023/06/19 04:19:37;;;;;;;13.65;12.35;;;;;;;;;;5064280;28;20626;-54
2023/06/19 04:22:04;;;;;;;14.20;13.02;;;;;;;;;;5064871;28;20258;-55
2023/06/19 04:24:30;;;;;;;12.23;11.23;;;;;;;;;;5065046;28;20235;-55
2023/06/19 04:26:57;;;;;;;12.60;11.45;;;;;;;;;;5061718;28;20234;-55
2023/06/19 04:29:25;;;;;;;13.18;12.10;;;;;;;;;;5059530;28;20231;-55
2023/06/19 04:31:52;;;;;;;12.65;11.63;;;;;;;;;;5063538;28;20510;-55
2023/06/19 04:34:20;;;;;;;13.60;12.40;;;;;;;;;;5061582;28;20239;-55
2023/06/19 04:36:47;;;;;;;12.27;11.18;;;;;;;;;;5057094;28;20956;-55
2023/06/19 04:39:14;;;;;;;12.25;11.25;;;;;;;;;;5066788;28;20223;-56
2023/06/19 04:41:43;;;;;;;12.35;11.15;;;;;;;;;;5069163;28;20219;-55
2023/06/19 04:44:11;;;;;;;12.07;11.07;;;;;;;;;;5072491;27;20261;-55
2023/06/19 04:46:39;;;;;;;12.23;11.13;;;;;;;;;;5072804;28;20256;-55
2023/06/19 04:49:06;;;;;;;11.80;10.70;;;;;;;;;;5071466;28;20239;-55
2023/06/19 04:51:33;;;;;;;11.63;10.63;;;;;;;;;;5063918;28;20227;-55
2023/06/19 04:53:59;;;;;;;11.95;10.85;;;;;;;;;;5058980;28;20671;-54
2023/06/19 04:56:26;;;;;;;13.65;12.52;;;;;;;;;;5065636;28;20246;-55
2023/06/19 04:58:55;;;;;;;12.93;11.90;;;;;;;;;;5068417;28;20276;-53
2023/06/19 05:01:27;;;;;;;11.43;10.52;;;;;;;;;;5064139;28;20247;-54
2023/06/19 05:03:55;;;;;;;12.20;11.10;;;;;;;;;;5061204;28;20775;-54
2023/06/19 05:06:22;;;;;;;12.75;11.75;;;;;;;;;;5065582;28;20223;-54
2023/06/19 05:08:49;;;;;;;12.75;11.60;;;;;;;;;;5064941;28;20235;-55
2023/06/19 05:11:16;;;;;;;11.95;10.95;;;;;;;;;;5062233;28;20237;-55
2023/06/19 05:13:42;;;;;;;11.75;10.85;;;;;;;;;;5060397;28;20239;-54
2023/06/19 05:16:09;;;;;;;12.75;11.70;;;;;;;;;;5064438;28;20241;-54
2023/06/19 05:18:36;;;;;;;13.35;12.27;;;;;;;;;;5063103;28;20688;-55
2023/06/19 05:21:04;;;;;;;12.43;11.43;;;;;;;;;;5071928;28;20895;-55
2023/06/19 05:23:30;;;;;;;13.05;11.85;;;;;;;;;;5073929;28;20234;-55
2023/06/19 05:25:57;;;;;;;13.57;12.38;;;;;;;;;;5071599;28;20308;-55
2023/06/19 05:28:23;;;;;;;13.45;12.35;;;;;;;;;;5066304;28;20233;-55
2023/06/19 05:30:51;;;;;;;11.75;10.85;;;;;;;;;;5068890;28;20227;-56
2023/06/19 05:33:18;;;;;;;11.15;10.25;;;;;;;;;;5067721;28;20674;-55
2023/06/19 05:35:51;;;;;;;12.35;11.35;;;;;;;;;;5063559;28;20223;-54
2023/06/19 05:38:19;;;;;;;13.27;12.07;;;;;;;;;;5053374;28;20381;-55
2023/06/19 05:40:45;;;;;;;14.05;12.85;;;;;;;;;;5062583;28;20241;-55
2023/06/19 05:43:12;;;;;;;13.15;11.90;;;;;;;;;;5058470;28;20657;-54
2023/06/19 05:45:38;;;;;;;12.80;11.75;;;;;;;;;;5058637;28;20227;-55
2023/06/19 05:48:05;;;;;;;13.60;12.40;;;;;;;;;;5063509;28;20312;-54
2023/06/19 05:50:32;;;;;;;14.30;12.98;;;;;;;;;;5060164;28;20630;-54
2023/06/19 05:52:58;;;;;;;14.85;13.55;;;;;;;;;;5058413;28;20238;-55
2023/06/19 05:55:27;;;;;;;13.00;11.90;;;;;;;;;;5061143;28;20332;-53
2023/06/19 05:57:53;;;;;;;12.57;11.45;;;;;;;;;;5062778;28;20239;-54
2023/06/19 06:00:20;;;;;;;13.05;11.85;;;;;;;;;;5059162;28;20235;-54
2023/06/19 06:02:47;;;;;;;12.63;11.52;;;;;;;;;;5061985;28;20738;-56
2023/06/19 06:05:13;;;;;;;14.32;13.15;;;;;;;;;;5062367;28;20237;-55
2023/06/19 06:07:40;;;;;;;15.43;14.20;;;;;;;;;;5053420;28;20227;-55
2023/06/19 06:10:07;;;;;;;13.98;12.88;;;;;;;;;;5058082;28;20243;-57
2023/06/19 06:12:36;;;;;;;14.52;12.90;;;;;;;;;;5061901;28;20656;-53
2023/06/19 06:15:02;;;;;;;13.82;12.73;;;;;;;;;;5073819;28;20309;-54
2023/06/19 06:17:29;;;;;;;41.45;19.25;;;;;;;;;;5068614;28;20672;-54
2023/06/19 06:19:55;;;;;;;15.40;13.00;;;;;;;;;;5079870;28;20250;-55
2023/06/19 06:22:22;;;;;;;14.05;12.55;;;;;;;;;;5071792;28;20740;-55
2023/06/19 06:24:49;;;;;;;12.55;11.45;;;;;;;;;;5071155;28;20322;-54
2023/06/19 06:27:15;;;;;;;13.50;11.85;;;;;;;;;;5077004;28;20298;-54
2023/06/19 06:29:43;;;;;;;13.13;12.00;;;;;;;;;;5070092;28;20256;-56
2023/06/19 06:32:10;;;;;;;13.75;12.60;;;;;;;;;;5073347;28;20230;-53
2023/06/19 06:34:36;;;;;;;13.30;12.00;;;;;;;;;;5068696;28;20241;-55
2023/06/19 06:37:03;;;;;;;13.95;12.52;;;;;;;;;;5073183;28;20248;-55
2023/06/19 06:39:31;;;;;;;13.98;12.77;;;;;;;;;;5055722;28;20223;-55
2023/06/19 06:41:57;;;;;;;13.15;12.15;;;;;;;;;;5060632;28;20309;-56
2023/06/19 06:44:24;;;;;;;13.55;12.25;;;;;;;;;;5070805;28;20729;-54
2023/06/19 06:46:52;;;;;;;14.23;12.93;;;;;;;;;;5068280;28;20242;-54
2023/06/19 06:49:18;;;;;;;14.45;13.25;;;;;;;;;;5067986;28;22114;-55
2023/06/19 06:51:45;;;;;;;13.43;12.20;;;;;;;;;;5056293;28;20307;-56
2023/06/19 06:54:12;;;;;;;14.50;13.10;;;;;;;;;;5056196;28;20235;-56
2023/06/19 06:56:38;;;;;;;14.55;11.98;;;;;;;;;;5063215;28;20231;-55
2023/06/19 06:59:05;;;;;;;17.70;13.13;;;;;;;;;;5067328;28;20233;-55
2023/06/19 07:01:32;;;;;;;13.18;12.07;;;;;;;;;;5066509;28;20663;-54
2023/06/19 07:04:00;;;;;;;14.50;13.30;;;;;;;;;;5066277;28;20237;-53
2023/06/19 07:06:27;;;;;;;15.18;13.75;;;;;;;;;;5064037;28;20234;-55
2023/06/19 07:08:53;;;;;;;14.52;12.88;;;;;;;;;;5061678;28;20235;-54
2023/06/19 07:11:20;;;;;;;15.10;13.35;;;;;;;;;;5060974;28;20734;-55
2023/06/19 07:13:46;;;;;;;14.13;12.73;;;;;;;;;;5062147;28;20231;-54
2023/06/19 07:16:13;;;;;;;13.55;12.35;;;;;;;;;;5064228;27;20317;-55
2023/06/19 07:18:41;;;;;;;14.55;13.35;;;;;;;;;;5062357;28;20605;-54
2023/06/19 07:21:12;;;;;;;13.93;12.73;;;;;;;;;;5069583;28;20249;-54
2023/06/19 07:23:39;;;;;;;14.20;12.90;;;;;;;;;;5059413;28;20239;-55
2023/06/19 07:26:06;;;;;;;15.48;13.98;;;;;;;;;;5063576;28;20227;-55
2023/06/19 07:28:33;;;;;;;14.65;13.35;;;;;;;;;;5062800;28;20770;-54
2023/06/19 07:30:59;;;;;;;12.02;11.02;;;;;;;;;;5060642;28;20223;-54
2023/06/19 07:33:26;;;;;;;13.25;12.15;;;;;;;;;;5062150;28;20231;-55
2023/06/19 07:35:52;;;;;;;14.13;12.95;;;;;;;;;;5064731;28;20751;-55
2023/06/19 07:38:20;;;;;;;13.35;12.25;;;;;;;;;;5063442;28;20235;-54
2023/06/19 07:40:47;;;;;;;12.23;11.23;;;;;;;;;;5062205;28;20585;-57
2023/06/19 07:43:13;;;;;;;16.00;14.57;;;;;;;;;;5060579;28;20715;-55
2023/06/19 07:45:40;;;;;;;15.00;13.23;;;;;;;;;;5062879;28;20914;-55
2023/06/19 07:48:07;;;;;;;13.98;12.63;;;;;;;;;;5068033;27;20296;-55
2023/06/19 07:50:33;;;;;;;13.55;12.35;;;;;;;;;;5064461;28;20318;-56
2023/06/19 07:53:00;;;;;;;12.50;11.55;;;;;;;;;;5065749;28;20241;-56
2023/06/19 07:55:28;;;;;;;12.85;11.68;;;;;;;;;;5066825;28;20223;-55
2023/06/19 07:57:56;;;;;;;13.05;12.00;;;;;;;;;;5063600;28;20231;-57
2023/06/19 08:00:23;;;;;;;13.25;12.05;;;;;;;;;;5061916;28;20292;-55
2023/06/19 08:02:50;;;;;;;13.80;12.60;;;;;;;;;;5063117;28;20235;-55
2023/06/19 08:05:16;;;;;;;13.13;12.02;;;;;;;;;;5060953;28;20690;-54
2023/06/19 08:07:43;;;;;;;12.55;11.43;;;;;;;;;;5060935;28;20227;-55
2023/06/19 08:10:10;;;;;;;13.48;12.18;;;;;;;;;;5062000;28;20231;-54
2023/06/19 08:12:38;;;;;;;15.23;13.68;;;;;;;;;;5055942;28;20231;-54
2023/06/19 08:15:05;;;;;;;15.00;13.68;;;;;;;;;;5054014;28;20319;-55
2023/06/19 08:17:32;;;;;;;13.18;12.18;;;;;;;;;;5060731;28;20242;-55
2023/06/19 08:19:58;;;;;;;13.13;11.90;;;;;;;;;;5063144;28;20328;-55
2023/06/19 08:22:25;;;;;;;12.77;11.60;;;;;;;;;;5065831;28;20266;-54
2023/06/19 08:24:52;;;;;;;12.40;11.10;;;;;;;;;;5073550;28;20255;-54
2023/06/19 08:27:18;;;;;;;13.18;11.85;;;;;;;;;;5057566;28;20227;-54
2023/06/19 08:29:46;;;;;;;11.90;10.82;;;;;;;;;;5069072;28;20251;-54
2023/06/19 08:32:12;;;;;;;12.68;11.55;;;;;;;;;;5064440;28;20247;-54
2023/06/19 08:34:39;;;;;;;12.80;11.70;;;;;;;;;;5066337;28;20603;-55
2023/06/19 08:37:07;;;;;;;12.70;11.60;;;;;;;;;;5071626;28;20245;-55
2023/06/19 08:39:33;;;;;;;13.98;12.57;;;;;;;;;;5057177;28;20288;-55
2023/06/19 08:42:00;;;;;;;13.90;12.68;;;;;;;;;;5065494;28;20323;-56
2023/06/19 08:44:27;;;;;;;12.10;11.02;;;;;;;;;;5058645;28;20231;-53
2023/06/19 08:46:55;;;;;;;12.27;11.27;;;;;;;;;;5059386;28;20227;-53
2023/06/19 08:49:22;;;;;;;14.32;12.38;;;;;;;;;;5059393;28;20585;-56
2023/06/19 08:51:48;;;;;;;12.20;11.30;;;;;;;;;;5061253;28;20334;-56
2023/06/19 08:54:15;;;;;;;11.98;10.88;;;;;;;;;;5065653;28;20249;-55
2023/06/19 08:56:41;;;;;;;13.00;11.80;;;;;;;;;;5060723;28;20254;-55
2023/06/19 08:59:08;;;;;;;13.02;11.82;;;;;;;;;;5063215;28;20539;-54
2023/06/19 09:01:35;;;;;;;11.43;10.43;;;;;;;;;;5057241;28;20248;-55
2023/06/19 09:04:08;;;;;;;12.52;11.02;;;;;;;;;;5060779;28;20314;-54
2023/06/19 09:06:37;;;;;;;13.23;12.02;;;;;;;;;;5059545;28;20314;-53
2023/06/19 09:09:06;;;;;;;11.77;10.68;;;;;;;;;;5073549;28;20233;-55
2023/06/19 09:11:33;;;;;;;12.32;11.13;;;;;;;;;;5066816;28;20227;-56
2023/06/19 09:13:59;;;;;;;13.00;11.80;;;;;;;;;;5069530;28;20218;-55
2023/06/19 09:16:36;;;;;;;12.38;11.18;;;;;;;;;;5061269;28;20257;-54
2023/06/19 09:19:04;;;;;;;12.38;11.10;;;;;;;;;;5062085;28;20249;-54
2023/06/19 09:21:30;;;;;;;12.68;11.63;;;;;;;;;;5054804;28;20603;-54
2023/06/19 09:24:03;;;;;;;13.05;11.93;;;;;;;;;;5070187;28;20223;-54
2023/06/19 09:26:29;;;;;;;14.43;13.05;;;;;;;;;;5067308;28;20258;-54
2023/06/19 09:28:55;;;;;;;13.35;12.05;;;;;;;;;;5061578;28;20337;-54
2023/06/19 09:31:32;;;;;;;13.32;12.15;;;;;;;;;;5072723;28;20764;-55
2023/06/19 09:33:58;;;;;;;13.93;12.73;;;;;;;;;;5083012;28;20231;-54
2023/06/19 09:36:27;;;;;;;13.75;12.55;;;;;;;;;;5072897;28;20239;-56
2023/06/19 09:38:55;;;;;;;13.30;11.98;;;;;;;;;;5074563;28;20756;-54
2023/06/19 09:41:22;;;;;;;12.85;11.65;;;;;;;;;;5062572;28;20230;-54
2023/06/19 09:43:49;;;;;;;13.35;12.20;;;;;;;;;;5071513;28;20580;-55
2023/06/19 09:46:17;;;;;;;13.77;12.32;;;;;;;;;;5061217;28;20227;-55
2023/06/19 09:48:46;;;;;;;13.63;12.52;;;;;;;;;;5058070;28;20336;-54
2023/06/19 09:51:17;;;;;;;14.07;12.82;;;;;;;;;;5066397;28;20238;-55
2023/06/19 09:53:45;;;;;;;13.40;12.30;;;;;;;;;;5070516;28;20231;-56
2023/06/19 09:56:12;;;;;;;12.95;11.70;;;;;;;;;;5058736;28;20686;-58
2023/06/19 09:58:39;;;;;;;14.05;12.93;;;;;;;;;;5071374;28;20616;-55
2023/06/19 10:01:07;;;;;;;15.18;13.68;;;;;;;;;;5059588;28;20811;-56
2023/06/19 10:03:33;;;;;;;12.65;11.40;;;;;;;;;;5074396;28;20234;-56
2023/06/19 10:06:00;;;;;;;14.00;12.80;;;;;;;;;;5082662;28;20275;-56
2023/06/19 10:08:29;;;;;;;13.13;11.93;;;;;;;;;;5083392;28;20285;-55
2023/06/19 10:10:57;;;;;;;14.57;13.25;;;;;;;;;;5062603;28;20323;-54
2023/06/19 10:13:31;;;;;;;13.88;12.73;;;;;;;;;;5075180;28;20238;-54
2023/06/19 10:15:57;;;;;;;13.57;12.27;;;;;;;;;;5069408;28;20716;-56
2023/06/19 10:18:24;;;;;;;14.23;12.95;;;;;;;;;;5070254;28;20308;-55
2023/06/19 10:20:51;;;;;;;14.98;12.13;;;;;;;;;;5068663;28;20235;-56
2023/06/19 10:23:18;;;;;;;15.25;13.73;;;;;;;;;;5070004;28;20263;-55
2023/06/19 10:25:46;;;;;;;16.02;12.90;;;;;;;;;;5067104;28;20686;-55
2023/06/19 10:28:21;;;;;;;13.05;11.98;;;;;;;;;;5069620;28;20306;-54
2023/06/19 10:30:53;;;;;;;21.42;14.65;;;;;;;;;;5064569;28;20235;-57
2023/06/19 10:33:19;;;;;;;17.83;14.25;;;;;;;;;;5065516;28;20231;-55
2023/06/19 10:35:45;;;;;;;14.00;12.65;;;;;;;;;;5066260;28;20239;-55
2023/06/19 10:38:15;;;;;;;14.60;13.30;;;;;;;;;;5064555;28;20238;-55
2023/06/19 10:40:41;;;;;;;14.15;12.82;;;;;;;;;;5062736;28;20249;-54
2023/06/19 10:43:08;;;;;;;13.05;11.90;;;;;;;;;;5066811;28;20239;-56
2023/06/19 10:45:35;;;;;;;15.18;13.80;;;;;;;;;;5063627;28;20248;-55
2023/06/19 10:48:03;;;;;;;15.25;13.88;;;;;;;;;;5073169;28;20263;-56
2023/06/19 10:50:30;;;;;;;15.70;14.10;;;;;;;;;;5066964;28;20238;-54
2023/06/19 10:52:59;;;;;;;17.58;14.52;;;;;;;;;;5067161;28;20860;-56
2023/06/19 10:55:25;;;;;;;15.73;14.23;;;;;;;;;;5067247;28;20276;-55
2023/06/19 10:57:52;;;;;;;16.10;14.52;;;;;;;;;;5067856;28;20317;-57
2023/06/19 11:00:28;;;;;;;15.63;14.23;;;;;;;;;;5065511;28;20231;-54
2023/06/19 11:02:55;;;;;;;16.45;15.00;;;;;;;;;;5048579;28;20771;-55
2023/06/19 11:05:22;;;;;;;15.57;14.18;;;;;;;;;;5067758;28;20229;-54
2023/06/19 11:07:53;;;;;;;13.98;12.77;;;;;;;;;;5067334;28;20758;-55
2023/06/19 11:10:20;;;;;;;16.02;14.73;;;;;;;;;;5067973;28;20243;-55
2023/06/19 11:12:46;;;;;;;15.07;13.68;;;;;;;;;;5059329;28;20688;-56
2023/06/19 11:15:13;;;;;;;15.30;13.68;;;;;;;;;;5055577;28;20578;-54
2023/06/19 11:17:39;;;;;;;15.07;13.77;;;;;;;;;;5062290;28;20789;-54
2023/06/19 11:20:11;;;;;;;14.57;13.27;;;;;;;;;;5058838;28;20746;-55
2023/06/19 11:22:40;;;;;;;13.98;12.80;;;;;;;;;;5058270;28;20314;-56
2023/06/19 11:25:07;;;;;;;15.93;14.43;;;;;;;;;;5062582;28;20230;-55
2023/06/19 11:27:35;;;;;;;15.73;14.10;;;;;;;;;;5061081;28;20265;-56
2023/06/19 11:30:04;;;;;;;14.60;13.38;;;;;;;;;;5062657;28;20316;-55
2023/06/19 11:32:35;;;;;;;15.38;14.07;;;;;;;;;;5060741;28;20235;-55
2023/06/19 11:35:07;;;;;;;13.27;12.15;;;;;;;;;;5060260;28;20235;-56
2023/06/19 11:37:35;;;;;;;13.70;12.57;;;;;;;;;;5058387;28;20504;-54
2023/06/19 11:40:03;;;;;;;18.95;14.32;;;;;;;;;;5057890;28;20309;-54
2023/06/19 11:42:32;;;;;;;13.65;12.63;;;;;;;;;;5065054;28;20235;-56
2023/06/19 11:45:01;;;;;;;13.88;12.63;;;;;;;;;;5066652;28;20231;-55
2023/06/19 11:47:30;;;;;;;13.73;12.52;;;;;;;;;;5062839;28;20231;-55
2023/06/19 11:49:57;;;;;;;13.48;12.27;;;;;;;;;;5062625;28;20243;-55
2023/06/19 11:52:23;;;;;;;15.07;13.68;;;;;;;;;;5062443;28;20446;-56
2023/06/19 11:54:51;;;;;;;12.73;11.70;;;;;;;;;;5059418;28;20230;-55
2023/06/19 11:57:17;;;;;;;13.52;12.20;;;;;;;;;;5055401;28;20246;-55
2023/06/19 11:59:44;;;;;;;13.32;12.23;;;;;;;;;;5063619;28;20235;-55
2023/06/19 12:02:10;;;;;;;13.20;12.10;;;;;;;;;;5060429;28;20239;-56
2023/06/19 12:04:36;;;;;;;13.45;11.77;;;;;;;;;;5064505;28;20231;-56
2023/06/19 12:07:04;;;;;;;12.35;11.25;;;;;;;;;;5060178;28;20235;-56
2023/06/19 12:09:31;;;;;;;9.80;9.00;;;;;;;;;;5060892;28;20223;-56
2023/06/19 12:12:00;;;;;;;11.40;10.38;;;;;;;;;;5056544;28;20289;-58
2023/06/19 12:14:26;;;;;;;11.02;10.15;;;;;;;;;;5065168;28;20227;-57
2023/06/19 12:16:53;;;;;;;11.35;10.45;;;;;;;;;;5060687;28;20230;-55
2023/06/19 12:19:19;;;;;;;11.52;9.95;;;;;;;;;;5061050;28;20249;-57
2023/06/19 12:21:46;;;;;;;10.68;9.77;;;;;;;;;;5058592;28;20231;-57
2023/06/19 12:24:12;;;;;;;11.35;9.75;;;;;;;;;;5068195;28;20322;-56
2023/06/19 12:26:39;;;;;;;9.75;8.85;;;;;;;;;;5058597;28;20608;-56
2023/06/19 12:29:07;;;;;;;11.57;10.18;;;;;;;;;;5073768;28;20222;-56
2023/06/19 12:31:34;;;;;;;10.95;10.05;;;;;;;;;;5063851;28;20330;-57
2023/06/19 12:34:01;;;;;;;13.10;11.57;;;;;;;;;;5063122;28;20248;-56
2023/06/19 12:36:28;;;;;;;11.40;10.20;;;;;;;;;;5059108;28;20227;-57
2023/06/19 12:38:55;;;;;;;10.80;9.80;;;;;;;;;;5060126;28;20262;-57
2023/06/19 12:41:22;;;;;;;10.45;9.55;;;;;;;;;;5065704;28;20296;-57
2023/06/19 12:43:48;;;;;;;10.10;9.30;;;;;;;;;;5059561;28;20242;-57
2023/06/19 12:46:16;;;;;;;9.32;8.52;;;;;;;;;;5058212;28;20227;-56
2023/06/19 12:48:43;;;;;;;11.05;10.02;;;;;;;;;;5056897;28;20304;-57
2023/06/19 12:51:09;;;;;;;10.23;9.43;;;;;;;;;;5057825;28;20740;-56
2023/06/19 12:53:36;;;;;;;9.50;8.80;;;;;;;;;;5064990;28;20239;-55
2023/06/19 12:56:02;;;;;;;10.55;9.65;;;;;;;;;;5059655;28;20235;-56
2023/06/19 12:58:28;;;;;;;9.85;9.05;;;;;;;;;;5067297;28;20253;-56
2023/06/19 13:00:55;;;;;;;11.57;10.55;;;;;;;;;;5064640;28;20338;-56
2023/06/19 13:03:23;;;;;;;11.30;10.20;;;;;;;;;;5063990;28;20227;-56
2023/06/19 13:05:49;;;;;;;10.23;9.18;;;;;;;;;;5069357;28;20249;-57
2023/06/19 13:08:16;;;;;;;11.23;10.32;;;;;;;;;;5065965;28;20302;-57
2023/06/19 13:10:42;;;;;;;12.10;10.95;;;;;;;;;;5060001;28;20318;-56
2023/06/19 13:13:10;;;;;;;11.07;10.23;;;;;;;;;;5050828;28;20223;-55
2023/06/19 13:15:36;;;;;;;12.27;11.27;;;;;;;;;;5055000;28;20337;-56
2023/06/19 13:18:03;;;;;;;11.63;10.63;;;;;;;;;;5068020;28;20227;-57
2023/06/19 13:20:31;;;;;;;10.80;9.85;;;;;;;;;;5079867;28;20231;-58
2023/06/19 13:22:58;;;;;;;11.20;10.20;;;;;;;;;;5076308;28;20260;-56
2023/06/19 13:25:24;;;;;;;11.50;10.40;;;;;;;;;;5083068;28;20285;-57
2023/06/19 13:27:50;;;;;;;10.98;9.88;;;;;;;;;;5067731;28;20299;-55
2023/06/19 13:30:17;;;;;;;10.77;9.88;;;;;;;;;;5067657;28;20227;-56
2023/06/19 13:32:43;;;;;;;13.07;11.63;;;;;;;;;;5065413;28;20231;-56
2023/06/19 13:35:11;;;;;;;11.95;9.70;;;;;;;;;;5065179;28;20266;-57
2023/06/19 13:37:39;;;;;;;11.82;10.82;;;;;;;;;;5064682;28;20266;-55
2023/06/19 13:40:07;;;;;;;12.52;11.52;;;;;;;;;;5073212;28;20258;-56
2023/06/19 13:42:35;;;;;;;11.90;10.77;;;;;;;;;;5069449;28;20223;-56
2023/06/19 13:45:01;;;;;;;12.13;11.02;;;;;;;;;;5064085;28;20231;-57
2023/06/19 13:47:28;;;;;;;12.98;11.77;;;;;;;;;;5065043;28;20459;-55
2023/06/19 13:49:54;;;;;;;12.50;11.40;;;;;;;;;;5068163;28;20275;-56
2023/06/19 13:52:21;;;;;;;12.50;11.45;;;;;;;;;;5064281;28;20242;-57
2023/06/19 13:54:49;;;;;;;13.30;12.00;;;;;;;;;;5063352;28;20242;-55
2023/06/19 13:57:15;;;;;;;14.93;11.52;;;;;;;;;;5059153;28;20231;-56
2023/06/19 13:59:43;;;;;;;12.82;11.73;;;;;;;;;;5065877;28;20278;-56
2023/06/19 14:02:10;;;;;;;12.10;11.20;;;;;;;;;;5059848;28;20263;-55
2023/06/19 14:04:36;;;;;;;13.48;12.32;;;;;;;;;;5066194;28;20352;-56
2023/06/19 14:07:03;;;;;;;13.10;12.10;;;;;;;;;;5061051;28;20895;-56
2023/06/19 14:09:30;;;;;;;13.48;12.38;;;;;;;;;;5062889;28;20235;-55
2023/06/19 14:11:58;;;;;;;12.88;11.77;;;;;;;;;;5062148;28;20234;-54
2023/06/19 14:14:24;;;;;;;12.35;11.23;;;;;;;;;;5064767;28;20235;-56
2023/06/19 14:16:51;;;;;;;13.13;11.82;;;;;;;;;;5064286;28;20754;-57
2023/06/19 14:19:17;;;;;;;11.68;10.70;;;;;;;;;;5067001;28;20318;-58